Time;durP1;ratioP1;P1;durP2;ratioP2;P2;SDS_P1;SDS_P2;PMS_P1;PMS_P2;Temp;Humidity;BMP_temperature;BMP_pressure;BME280_temperature;BME280_humidity;BME280_pressure;Samples;Min_cycle;Max_cycle;Signal;HPM_P1;HPM_P2
2021/09/14 00:01:37;;;;;;;12.00;6.40;;;;;;;18.06;59.27;101571.94;4933166;28;114227;-62
2021/09/14 00:04:04;;;;;;;8.80;6.05;;;;;;;18.03;59.61;101570.34;4926311;28;112868;-61
2021/09/14 00:06:34;;;;;;;10.95;6.03;;;;;;;17.99;59.28;101571.50;4933720;28;123801;-62
2021/09/14 00:09:01;;;;;;;10.30;6.10;;;;;;;17.95;59.31;101564.63;4933867;28;123724;-62
2021/09/14 00:11:28;;;;;;;11.65;6.20;;;;;;;17.90;59.35;101561.38;4934705;28;114552;-62
2021/09/14 00:13:55;;;;;;;11.57;6.50;;;;;;;17.87;59.65;101556.19;4948808;28;113789;-61
2021/09/14 00:16:22;;;;;;;12.48;6.95;;;;;;;17.83;59.58;101560.00;4934863;28;124051;-61
2021/09/14 00:18:51;;;;;;;10.40;6.03;;;;;;;17.79;60.01;101553.13;4932727;28;123952;-62
2021/09/14 00:21:18;;;;;;;10.88;6.32;;;;;;;17.78;60.00;101557.63;4931947;28;115312;-61
2021/09/14 00:23:45;;;;;;;12.98;6.35;;;;;;;17.78;59.84;101551.38;4932893;28;115379;-61
2021/09/14 00:26:12;;;;;;;10.75;6.13;;;;;;;17.77;60.12;101561.25;4934130;28;123957;-62
2021/09/14 00:28:40;;;;;;;10.05;6.18;;;;;;;17.76;60.10;101558.66;4930090;28;124769;-61
2021/09/14 00:31:07;;;;;;;10.63;6.43;;;;;;;17.76;60.16;101556.00;4932390;28;114444;-61
2021/09/14 00:33:34;;;;;;;9.98;6.47;;;;;;;17.74;60.13;101556.09;4933668;28;114110;-61
2021/09/14 00:36:01;;;;;;;9.77;6.47;;;;;;;17.73;60.13;101556.22;4935630;28;124444;-61
2021/09/14 00:38:29;;;;;;;12.00;6.53;;;;;;;17.69;60.20;101569.78;4934161;28;123864;-62
2021/09/14 00:40:56;;;;;;;11.73;6.60;;;;;;;17.67;60.30;101558.31;4926941;28;114831;-61
2021/09/14 00:43:23;;;;;;;13.95;6.63;;;;;;;17.67;60.23;101555.63;4926954;28;112935;-62
2021/09/14 00:45:52;;;;;;;10.60;6.20;;;;;;;17.66;60.31;101545.84;4933569;28;124867;-62
2021/09/14 00:48:19;;;;;;;12.98;6.90;;;;;;;17.65;60.21;101541.47;4930572;28;124134;-62
2021/09/14 00:50:47;;;;;;;13.13;6.50;;;;;;;17.64;60.12;101538.88;4932860;28;114585;-62
2021/09/14 00:53:15;;;;;;;14.82;6.50;;;;;;;17.63;60.15;101538.03;4928619;28;114162;-62
2021/09/14 00:55:43;;;;;;;12.07;6.55;;;;;;;17.60;60.28;101532.84;4924605;28;123892;-62
2021/09/14 00:58:10;;;;;;;11.13;6.13;;;;;;;17.58;60.18;101532.09;4933391;28;122876;-61
2021/09/14 01:00:37;;;;;;;10.80;6.63;;;;;;;17.57;60.07;101533.03;4931418;28;113115;-62
2021/09/14 01:03:05;;;;;;;9.80;6.15;;;;;;;17.58;60.29;101534.78;4929006;28;114278;-61
2021/09/14 01:05:32;;;;;;;9.35;6.20;;;;;;;17.60;60.31;101538.22;4933891;28;124995;-62
2021/09/14 01:08:00;;;;;;;11.20;6.88;;;;;;;17.61;60.03;101539.94;4934471;28;124343;-62
2021/09/14 01:10:28;;;;;;;11.85;6.38;;;;;;;17.63;59.79;101538.03;4932201;28;115600;-61
2021/09/14 01:12:56;;;;;;;13.00;6.97;;;;;;;17.64;59.97;101536.22;4934742;28;114447;-61
2021/09/14 01:15:24;;;;;;;11.48;6.78;;;;;;;17.62;59.94;101538.97;4919669;28;123615;-61
2021/09/14 01:17:52;;;;;;;12.48;7.03;;;;;;;17.58;59.84;101534.78;4933725;28;122950;-62
2021/09/14 01:20:19;;;;;;;9.38;6.45;;;;;;;17.55;59.88;101540.31;4932699;28;114416;-61
2021/09/14 01:22:47;;;;;;;11.20;6.75;;;;;;;17.53;60.03;101547.59;4950634;28;113176;-62
2021/09/14 01:25:19;;;;;;;10.93;7.25;;;;;;;17.51;60.15;101536.13;4932863;28;122935;-62
2021/09/14 01:27:50;;;;;;;11.10;7.07;;;;;;;17.49;60.13;101535.34;4950274;28;127253;-61
2021/09/14 01:30:25;;;;;;;11.25;6.53;;;;;;;17.48;59.90;101533.66;4948028;28;116933;-62
2021/09/14 01:32:54;;;;;;;10.02;6.90;;;;;;;17.48;60.00;101541.69;4932435;28;114328;-61
2021/09/14 01:35:28;;;;;;;10.77;6.80;;;;;;;17.48;60.01;101533.66;4932001;28;123221;-61
2021/09/14 01:37:58;;;;;;;10.40;6.20;;;;;;;17.46;60.01;101535.53;4931211;28;123517;-61
2021/09/14 01:40:30;;;;;;;10.60;6.95;;;;;;;17.46;60.05;101540.91;4927842;28;113560;-61
2021/09/14 01:43:05;;;;;;;11.57;6.78;;;;;;;17.47;59.88;101537.28;4934079;28;113772;-61
2021/09/14 01:45:33;;;;;;;10.77;6.50;;;;;;;17.48;59.90;101544.38;4949080;28;123205;-61
2021/09/14 01:48:04;;;;;;;10.90;6.80;;;;;;;17.47;59.85;101537.28;4933191;28;122848;-61
2021/09/14 01:50:31;;;;;;;11.27;7.57;;;;;;;17.47;59.72;101538.13;4933092;28;113434;-62
2021/09/14 01:53:02;;;;;;;11.88;7.05;;;;;;;17.44;59.90;101532.97;4920397;28;113091;-66
2021/09/14 01:55:32;;;;;;;11.48;6.97;;;;;;;17.41;59.90;101535.00;4933580;28;123895;-61
2021/09/14 01:58:00;;;;;;;12.32;7.40;;;;;;;17.38;60.00;101532.50;4931069;28;124267;-61
2021/09/14 02:00:30;;;;;;;11.82;7.72;;;;;;;17.35;59.87;101530.00;4932161;28;114373;-61
2021/09/14 02:08:45;;;;;;;11.83;7.03;;;;;;;17.24;60.01;101518.16;4928761;28;122905;-61
2021/09/14 02:39:15;;;;;;;10.65;6.70;;;;;;;16.88;60.26;101498.06;4930067;28;124299;-61
2021/09/14 02:41:57;;;;;;;12.05;6.57;;;;;;;16.86;60.50;101499.13;4932728;28;123146;-62
2021/09/14 02:58:40;;;;;;;12.32;6.85;;;;;;;16.83;60.63;101493.94;4930172;28;113862;-62
2021/09/14 03:01:12;;;;;;;14.93;6.57;;;;;;;16.81;60.68;101496.69;4931947;28;123197;-62
2021/09/14 03:03:45;;;;;;;10.27;6.60;;;;;;;16.79;60.72;101493.25;4919815;28;122975;-62
2021/09/14 03:06:14;;;;;;;13.68;7.38;;;;;;;16.79;60.81;101498.59;4932078;28;113661;-63
2021/09/14 03:08:42;;;;;;;13.55;7.55;;;;;;;16.80;60.86;101494.97;4931512;28;113130;-62
2021/09/14 03:11:15;;;;;;;13.35;7.45;;;;;;;16.81;60.67;101485.97;4931775;28;123553;-62
2021/09/14 03:13:50;;;;;;;13.90;7.28;;;;;;;16.81;60.70;101475.28;4932413;28;126814;-62
2021/09/14 03:16:18;;;;;;;12.65;6.90;;;;;;;16.80;60.87;101478.03;4931852;28;113477;-62
2021/09/14 03:18:45;;;;;;;10.93;7.10;;;;;;;16.78;60.86;101480.81;4928596;28;113059;-62
2021/09/14 03:21:13;;;;;;;13.70;7.22;;;;;;;16.76;60.70;101477.38;4928172;28;123908;-62
2021/09/14 03:23:40;;;;;;;12.50;7.15;;;;;;;16.75;60.79;101486.34;4930942;28;122253;-62
2021/09/14 03:26:08;;;;;;;12.73;7.07;;;;;;;16.72;60.93;101475.84;4926764;28;113854;-62
2021/09/14 03:28:36;;;;;;;12.43;7.55;;;;;;;16.69;60.87;101476.03;4947211;28;113566;-62
2021/09/14 03:31:04;;;;;;;13.48;7.85;;;;;;;16.68;61.02;101479.66;4948389;28;123307;-62
2021/09/14 03:33:32;;;;;;;13.10;7.38;;;;;;;16.67;61.12;101477.91;4923598;28;123769;-62
2021/09/14 03:36:00;;;;;;;14.48;7.85;;;;;;;16.65;61.07;101469.13;4931156;28;114450;-62
2021/09/14 03:38:29;;;;;;;13.30;7.78;;;;;;;16.64;61.01;101467.44;4931527;28;112964;-62
2021/09/14 03:40:57;;;;;;;12.98;7.82;;;;;;;16.62;61.22;101455.97;4924406;28;124893;-62
2021/09/14 03:43:24;;;;;;;12.20;8.00;;;;;;;16.60;61.10;101449.84;4935049;28;124083;-62
2021/09/14 03:45:52;;;;;;;12.93;7.90;;;;;;;16.58;61.20;101446.41;4923735;28;114494;-62
2021/09/14 03:48:25;;;;;;;13.63;7.53;;;;;;;16.57;61.20;101450.03;4947263;28;113839;-62
2021/09/14 03:50:52;;;;;;;11.13;7.18;;;;;;;16.55;61.16;101448.28;4943817;28;123046;-62
2021/09/14 03:53:20;;;;;;;14.85;7.82;;;;;;;16.54;61.18;101446.59;4925829;28;122753;-62
2021/09/14 03:55:51;;;;;;;14.73;7.63;;;;;;;16.52;61.31;101443.16;4919096;28;113595;-62
2021/09/14 03:58:18;;;;;;;14.18;7.97;;;;;;;16.49;61.34;101432.63;4931890;28;113352;-62
2021/09/14 04:00:51;;;;;;;16.85;8.00;;;;;;;16.47;61.47;101429.19;4927455;28;123085;-62
2021/09/14 04:08:57;;;;;;;16.67;8.75;;;;;;;16.41;61.48;101424.22;4929681;28;113769;-62
2021/09/14 04:11:30;;;;;;;14.73;8.77;;;;;;;16.41;61.66;101423.38;4918895;28;123177;-62
2021/09/14 04:13:59;;;;;;;16.40;8.88;;;;;;;16.41;61.59;101418.88;4920278;28;123780;-62
2021/09/14 04:16:26;;;;;;;15.60;8.38;;;;;;;16.42;61.72;101415.22;4931740;28;113636;-62
2021/09/14 04:18:53;;;;;;;14.98;8.23;;;;;;;16.41;61.77;101410.84;4928419;28;113141;-62
2021/09/14 04:21:20;;;;;;;14.70;8.65;;;;;;;16.39;61.69;101415.44;4913087;28;123190;-62
2021/09/14 04:23:48;;;;;;;13.00;8.43;;;;;;;16.38;61.87;101424.38;4928995;28;123008;-62
2021/09/14 04:26:15;;;;;;;15.73;8.95;;;;;;;16.36;61.78;101431.66;4942416;28;113279;-62
2021/09/14 04:28:42;;;;;;;15.57;8.85;;;;;;;16.35;61.76;101429.94;4933080;28;114098;-62
2021/09/14 04:31:10;;;;;;;14.75;8.77;;;;;;;16.34;61.92;101433.56;4932299;28;123222;-62
2021/09/14 04:33:38;;;;;;;15.07;8.93;;;;;;;16.35;61.64;101435.28;4938970;28;123205;-62
2021/09/14 04:36:05;;;;;;;14.60;8.25;;;;;;;16.35;61.86;101440.63;4931144;28;115059;-62
2021/09/14 04:38:36;;;;;;;16.33;9.60;;;;;;;16.36;61.80;101442.34;4932165;28;114001;-62
2021/09/14 04:41:03;;;;;;;14.57;8.85;;;;;;;16.35;61.73;101440.63;4943698;28;123039;-62
2021/09/14 04:43:31;;;;;;;16.52;9.07;;;;;;;16.36;61.92;101447.69;4931293;28;124163;-62
2021/09/14 04:45:58;;;;;;;13.13;8.52;;;;;;;16.37;61.81;101454.78;4934526;28;113420;-62
2021/09/14 04:48:27;;;;;;;14.57;8.45;;;;;;;16.39;61.70;101455.53;4930231;28;113275;-62
2021/09/14 04:50:54;;;;;;;15.80;9.20;;;;;;;16.38;61.79;101451.13;4930210;28;124453;-62
2021/09/14 04:53:22;;;;;;;14.60;8.20;;;;;;;16.38;61.94;101461.81;4938506;28;123463;-62
2021/09/14 04:55:51;;;;;;;12.45;7.90;;;;;;;16.38;61.71;101456.47;4933945;28;113286;-62
2021/09/14 04:58:18;;;;;;;13.48;8.73;;;;;;;16.38;61.59;101445.78;4925517;28;113849;-62
2021/09/14 05:00:45;;;;;;;14.82;8.82;;;;;;;16.37;61.53;101446.75;4929528;28;123669;-62
2021/09/14 05:03:17;;;;;;;16.10;8.45;;;;;;;16.35;61.61;101446.84;4921748;28;122857;-62
2021/09/14 05:05:44;;;;;;;14.52;9.05;;;;;;;16.34;61.48;101444.25;4933784;28;113263;-62
2021/09/14 05:08:12;;;;;;;15.02;9.05;;;;;;;16.31;61.47;101449.75;4941098;28;113338;-62
2021/09/14 05:10:39;;;;;;;13.77;8.57;;;;;;;16.29;61.64;101446.31;4926593;28;124360;-62
2021/09/14 05:13:08;;;;;;;17.63;8.88;;;;;;;16.28;61.72;101441.94;4922890;28;123837;-62
2021/09/14 05:15:36;;;;;;;16.52;9.30;;;;;;;16.25;61.69;101439.44;4934168;28;113539;-62
2021/09/14 05:18:18;;;;;;;15.40;9.15;;;;;;;16.23;61.62;101447.53;4933918;28;113122;-62
2021/09/14 05:20:50;;;;;;;18.77;9.50;;;;;;;16.24;61.79;101443.09;4934193;28;123299;-62
2021/09/14 05:23:21;;;;;;;16.80;9.10;;;;;;;16.21;61.79;101432.56;4943051;28;123318;-62
2021/09/14 05:25:48;;;;;;;17.52;9.35;;;;;;;16.19;61.88;101434.47;4932507;28;114090;-62
2021/09/14 05:28:15;;;;;;;14.88;8.88;;;;;;;16.17;61.74;101425.69;4931885;28;114882;-62
2021/09/14 05:30:46;;;;;;;15.57;9.68;;;;;;;16.15;61.86;101431.13;4934656;28;124447;-62
2021/09/14 05:33:14;;;;;;;14.63;9.80;;;;;;;16.14;62.05;101427.59;4933588;28;123041;-62
2021/09/14 05:35:53;;;;;;;18.90;9.32;;;;;;;16.15;62.05;101429.28;4922996;28;114867;-62
2021/09/14 05:38:23;;;;;;;17.83;9.57;;;;;;;16.15;62.16;101431.97;4948388;28;113160;-62
2021/09/14 05:40:55;;;;;;;16.15;9.88;;;;;;;16.18;62.17;101427.38;4927759;28;122880;-62
2021/09/14 05:43:27;;;;;;;17.17;9.98;;;;;;;16.22;62.28;101429.81;4938199;28;123095;-62
2021/09/14 05:45:55;;;;;;;18.35;9.98;;;;;;;16.24;62.49;101424.38;4932188;28;115081;-62
2021/09/14 05:48:30;;;;;;;16.92;9.57;;;;;;;16.25;62.46;101423.41;4933335;28;113510;-62
2021/09/14 05:50:58;;;;;;;15.77;9.52;;;;;;;16.27;62.45;101422.34;4933019;28;123500;-62
2021/09/14 05:53:26;;;;;;;20.40;10.30;;;;;;;16.31;62.56;101417.69;4927058;28;123361;-62
2021/09/14 05:55:56;;;;;;;16.40;10.50;;;;;;;16.33;62.68;101423.81;4927542;28;113815;-62
2021/09/14 05:58:25;;;;;;;19.13;10.60;;;;;;;16.35;62.66;101420.09;4932612;28;113717;-62
2021/09/14 06:00:52;;;;;;;17.73;10.38;;;;;;;16.37;62.63;101414.66;4933575;28;123408;-63
2021/09/14 06:03:27;;;;;;;16.88;10.20;;;;;;;16.41;62.75;101418.88;4930579;28;123144;-62
2021/09/14 06:05:54;;;;;;;19.40;10.27;;;;;;;16.43;62.90;101414.28;4932370;28;113096;-62
2021/09/14 06:08:22;;;;;;;18.35;11.02;;;;;;;16.47;63.03;101406.94;4922635;28;113105;-62
2021/09/14 06:10:52;;;;;;;21.77;11.75;;;;;;;16.51;62.99;101401.31;4931049;28;123295;-63
2021/09/14 06:13:19;;;;;;;18.88;11.50;;;;;;;16.55;63.17;101399.31;4934101;28;122825;-62
2021/09/14 06:15:47;;;;;;;19.63;11.27;;;;;;;16.60;63.30;101412.41;4932478;28;114404;-62
2021/09/14 06:18:21;;;;;;;19.73;12.13;;;;;;;16.65;63.21;101404.94;4923793;28;113730;-62
2021/09/14 06:20:50;;;;;;;19.58;11.95;;;;;;;16.71;63.34;101404.59;4928948;28;123353;-65
2021/09/14 06:23:18;;;;;;;22.83;12.20;;;;;;;16.77;63.45;101409.53;4942615;28;124134;-65
2021/09/14 06:25:48;;;;;;;19.65;12.35;;;;;;;16.85;63.42;101414.44;4949263;28;114104;-65
2021/09/14 06:28:15;;;;;;;18.60;11.73;;;;;;;16.93;63.31;101426.41;4932308;28;113142;-65
2021/09/14 06:30:43;;;;;;;19.08;11.27;;;;;;;17.03;63.41;101426.69;4932864;28;123345;-65
2021/09/14 06:33:13;;;;;;;19.17;11.75;;;;;;;17.12;63.36;101426.09;4933375;28;123062;-65
2021/09/14 06:35:46;;;;;;;21.15;10.98;;;;;;;17.20;63.11;101428.28;4929885;28;113320;-66
2021/09/14 06:38:21;;;;;;;21.23;11.17;;;;;;;17.29;62.87;101433.06;4924426;28;116593;-65
2021/09/14 06:40:50;;;;;;;18.55;11.25;;;;;;;17.37;63.09;101429.03;4940388;28;123117;-65
2021/09/14 06:43:19;;;;;;;17.40;11.13;;;;;;;17.40;62.93;101428.81;4928663;28;123257;-65
2021/09/14 06:46:06;;;;;;;19.33;11.52;;;;;;;17.46;62.80;101439.13;4920965;28;114693;-65
2021/09/14 06:48:39;;;;;;;18.73;11.45;;;;;;;17.51;62.88;101442.38;4928985;28;113163;-65
2021/09/14 06:51:07;;;;;;;18.35;11.05;;;;;;;17.55;62.90;101433.19;4931362;28;124501;-65
2021/09/14 06:53:34;;;;;;;17.30;10.82;;;;;;;17.60;62.71;101436.44;4931115;28;124173;-65
2021/09/14 06:56:01;;;;;;;19.98;10.98;;;;;;;17.64;62.68;101437.94;4932608;28;114199;-65
2021/09/14 06:58:36;;;;;;;17.05;10.35;;;;;;;17.68;62.43;101428.75;4941447;28;112957;-65
2021/09/14 07:01:05;;;;;;;17.05;10.73;;;;;;;17.71;62.62;101428.53;4930333;28;124163;-65
2021/09/14 07:03:33;;;;;;;16.38;10.50;;;;;;;17.74;62.65;101421.25;4919304;28;124688;-65
2021/09/14 07:06:00;;;;;;;18.80;11.02;;;;;;;17.78;62.68;101422.78;4931632;28;114233;-65
2021/09/14 07:08:28;;;;;;;18.52;11.23;;;;;;;17.79;62.53;101419.16;4930192;28;114152;-65
2021/09/14 07:10:55;;;;;;;18.52;10.93;;;;;;;17.80;62.48;101412.81;4918265;28;124895;-65
2021/09/14 07:13:23;;;;;;;16.83;10.93;;;;;;;17.80;62.54;101404.78;4931600;28;124269;-65
2021/09/14 07:15:50;;;;;;;20.00;11.90;;;;;;;17.82;62.67;101398.38;4931338;28;114493;-65
2021/09/14 07:18:17;;;;;;;18.35;11.40;;;;;;;17.85;62.59;101402.69;4920986;28;114592;-65
2021/09/14 07:20:44;;;;;;;20.98;11.57;;;;;;;17.85;62.79;101394.66;4930704;28;123864;-65
2021/09/14 07:23:11;;;;;;;17.45;11.05;;;;;;;17.86;62.63;101399.06;4931057;28;123790;-65
2021/09/14 07:25:41;;;;;;;19.17;11.15;;;;;;;17.89;62.67;101393.47;4933406;28;114982;-65
2021/09/14 07:28:09;;;;;;;17.63;10.85;;;;;;;17.90;62.85;101397.88;4925595;28;114075;-65
2021/09/14 07:30:37;;;;;;;17.80;11.45;;;;;;;17.98;62.80;101386.66;4925289;28;123913;-65
2021/09/14 07:33:04;;;;;;;17.90;11.32;;;;;;;18.05;62.77;101387.97;4926941;28;124077;-65
2021/09/14 07:35:31;;;;;;;15.93;10.48;;;;;;;18.13;62.97;101395.47;4931811;28;113982;-65
2021/09/14 07:37:58;;;;;;;17.67;11.40;;;;;;;18.22;62.90;101405.56;4932276;28;113791;-65
2021/09/14 07:40:26;;;;;;;16.30;10.55;;;;;;;18.32;63.02;101401.28;4920239;28;124046;-65
2021/09/14 07:42:54;;;;;;;18.30;10.90;;;;;;;18.45;62.90;101399.47;4932265;28;123432;-65
2021/09/14 07:45:22;;;;;;;19.80;11.10;;;;;;;18.58;62.90;101401.31;4931762;28;114574;-65
2021/09/14 07:47:49;;;;;;;17.55;11.70;;;;;;;18.73;62.99;101410.97;4931122;28;114037;-65
2021/09/14 07:50:16;;;;;;;18.83;11.30;;;;;;;18.85;62.68;101399.41;4934931;28;123839;-65
2021/09/14 07:52:44;;;;;;;15.50;11.13;;;;;;;19.01;62.77;101403.66;4933596;28;123935;-65
2021/09/14 07:55:11;;;;;;;20.50;12.27;;;;;;;19.15;62.44;101406.19;4932773;28;115269;-65
2021/09/14 07:57:38;;;;;;;19.60;12.65;;;;;;;19.24;62.19;101405.53;4933811;28;115346;-65
2021/09/14 08:00:06;;;;;;;21.73;12.90;;;;;;;19.36;62.01;101394.88;4934742;28;123047;-65
2021/09/14 08:02:39;;;;;;;20.58;12.07;;;;;;;19.45;61.94;101394.19;4933456;28;123978;-65
2021/09/14 08:05:07;;;;;;;16.83;11.45;;;;;;;19.55;62.13;101397.94;4934466;28;114970;-65
2021/09/14 08:07:34;;;;;;;17.33;11.52;;;;;;;19.69;61.88;101409.47;4933973;28;113853;-65
2021/09/14 08:10:02;;;;;;;14.13;9.95;;;;;;;19.82;61.97;101404.94;4933908;28;124051;-65
2021/09/14 08:12:29;;;;;;;16.30;10.85;;;;;;;19.97;61.51;101403.78;4934956;28;122836;-65
2021/09/14 08:14:56;;;;;;;15.60;10.25;;;;;;;20.11;61.18;101415.31;4934465;28;114475;-66
2021/09/14 08:17:23;;;;;;;17.48;10.68;;;;;;;20.23;61.20;101419.75;4933307;28;114315;-65
2021/09/14 08:19:50;;;;;;;17.05;10.20;;;;;;;20.38;61.08;101418.56;4932233;28;124087;-68
2021/09/14 08:22:19;;;;;;;17.40;10.98;;;;;;;20.54;61.01;101422.75;4921488;28;123991;-65
2021/09/14 08:24:46;;;;;;;13.70;9.75;;;;;;;20.70;60.86;101423.31;4927232;28;115082;-65
2021/09/14 08:27:13;;;;;;;15.15;10.10;;;;;;;20.87;60.57;101426.47;4933061;28;113881;-65
2021/09/14 08:29:41;;;;;;;15.43;10.05;;;;;;;21.01;60.48;101426.25;4934670;28;124887;-65
2021/09/14 08:32:08;;;;;;;13.63;9.60;;;;;;;21.16;59.94;101414.22;4931606;28;124316;-65
2021/09/14 08:34:35;;;;;;;13.80;9.65;;;;;;;21.33;59.66;101409.31;4938184;28;113371;-65
2021/09/14 08:37:02;;;;;;;15.27;9.52;;;;;;;21.48;59.26;101402.69;4931444;28;114307;-66
2021/09/14 08:39:29;;;;;;;16.88;10.15;;;;;;;21.62;59.15;101403.41;4927453;28;124792;-65
2021/09/14 08:41:57;;;;;;;13.18;9.48;;;;;;;21.77;58.99;101413.78;4944665;28;122839;-66
2021/09/14 08:44:24;;;;;;;13.85;9.88;;;;;;;21.91;59.00;101409.91;4929367;28;115442;-65
2021/09/14 08:46:51;;;;;;;16.92;9.43;;;;;;;22.09;58.79;101417.44;4929333;28;115029;-65
2021/09/14 08:49:18;;;;;;;14.43;9.15;;;;;;;22.26;58.54;101407.94;4927147;28;124442;-65
2021/09/14 08:51:45;;;;;;;13.07;8.80;;;;;;;22.39;57.92;101407.75;4930912;28;123999;-65
2021/09/14 08:54:13;;;;;;;14.07;9.18;;;;;;;22.49;57.62;101403.25;4926453;28;114341;-65
2021/09/14 08:56:40;;;;;;;13.27;9.27;;;;;;;22.59;57.69;101398.75;4928783;28;113804;-65
2021/09/14 08:59:07;;;;;;;14.25;9.63;;;;;;;22.68;57.18;101397.97;4934631;28;124011;-66
2021/09/14 09:01:34;;;;;;;13.90;8.88;;;;;;;22.79;56.93;101398.84;4932289;28;123813;-65
2021/09/14 09:04:03;;;;;;;13.50;8.90;;;;;;;22.86;56.66;101390.06;4932705;28;114596;-66
2021/09/14 09:06:32;;;;;;;13.88;8.30;;;;;;;22.97;56.93;101396.38;4935297;28;113886;-66
2021/09/14 09:09:26;;;;;;;13.18;8.40;;;;;;;23.12;56.93;101395.88;4931054;28;124225;-65
2021/09/14 09:12:07;;;;;;;14.70;9.80;;;;;;;23.29;56.59;101401.63;4935944;28;124266;-65
2021/09/14 09:14:39;;;;;;;12.32;8.68;;;;;;;23.42;56.20;101407.63;4932142;28;114175;-65
2021/09/14 09:17:08;;;;;;;13.65;9.10;;;;;;;23.50;55.88;101391.56;4918574;28;113051;-66
2021/09/14 09:19:35;;;;;;;12.65;8.60;;;;;;;23.61;55.60;101401.41;4919759;28;122903;-66
2021/09/14 09:22:11;;;;;;;11.65;8.32;;;;;;;23.71;55.52;101404.09;4934077;28;123043;-65
2021/09/14 09:24:50;;;;;;;13.70;8.40;;;;;;;23.81;55.15;101407.72;4929173;28;115214;-66
2021/09/14 09:27:24;;;;;;;12.82;9.07;;;;;;;23.92;55.07;101413.97;4932903;28;114331;-65
2021/09/14 09:30:04;;;;;;;12.13;8.82;;;;;;;24.03;54.73;101400.31;4927304;28;124097;-65
2021/09/14 09:32:45;;;;;;;12.38;8.77;;;;;;;24.09;54.38;101388.88;4919534;28;124766;-66
2021/09/14 09:35:27;;;;;;;14.70;8.85;;;;;;;24.15;54.23;101374.81;4927160;28;115090;-65
2021/09/14 09:37:55;;;;;;;12.77;8.55;;;;;;;24.24;54.02;101387.47;4934117;28;115281;-65
2021/09/14 09:40:37;;;;;;;10.90;8.40;;;;;;;24.35;53.94;101374.75;4930477;28;124143;-65
2021/09/14 09:43:07;;;;;;;11.05;7.70;;;;;;;24.47;53.70;101370.88;4931687;28;124167;-65
2021/09/14 09:45:46;;;;;;;13.43;7.85;;;;;;;24.58;53.35;101373.44;4933249;28;114635;-65
2021/09/14 09:48:15;;;;;;;13.13;8.85;;;;;;;24.70;53.47;101366.00;4931940;28;113912;-66
2021/09/14 09:50:43;;;;;;;11.18;8.13;;;;;;;24.80;52.93;101371.34;4933136;28;123833;-66
2021/09/14 09:53:11;;;;;;;12.32;8.05;;;;;;;24.93;52.90;101371.03;4934610;28;124246;-66
2021/09/14 09:55:41;;;;;;;11.88;7.70;;;;;;;25.01;52.89;101352.13;4926699;28;114296;-65
2021/09/14 09:58:08;;;;;;;11.05;7.40;;;;;;;25.09;52.63;101359.50;4932099;28;114108;-66
2021/09/14 10:00:38;;;;;;;11.25;8.10;;;;;;;25.15;52.53;101353.50;4942534;28;123056;-66
2021/09/14 10:03:14;;;;;;;10.98;7.60;;;;;;;25.22;52.46;101360.00;4930943;28;122828;-65
2021/09/14 10:05:45;;;;;;;10.07;7.43;;;;;;;25.33;51.86;101362.53;4931080;28;114193;-66
2021/09/14 10:08:15;;;;;;;13.48;7.50;;;;;;;25.39;51.47;101356.50;4934734;28;114888;-66
2021/09/14 10:10:42;;;;;;;10.95;7.45;;;;;;;25.45;51.55;101353.19;4932360;28;124648;-66
2021/09/14 10:13:10;;;;;;;13.13;7.68;;;;;;;25.49;51.32;101344.75;4923686;28;123977;-66
2021/09/14 10:15:38;;;;;;;10.10;7.18;;;;;;;25.55;50.92;101354.97;4926440;28;114478;-65
2021/09/14 10:18:07;;;;;;;9.63;7.03;;;;;;;25.62;51.13;101350.63;4932118;28;113786;-65
2021/09/14 10:20:42;;;;;;;10.05;7.10;;;;;;;25.74;50.81;101354.78;4920849;28;124007;-66
2021/09/14 10:23:24;;;;;;;12.43;7.60;;;;;;;25.84;51.18;101344.72;4947688;28;123844;-66
2021/09/14 10:26:03;;;;;;;11.07;7.35;;;;;;;25.95;50.47;101346.34;4929144;28;115559;-66
2021/09/14 10:28:42;;;;;;;9.48;7.03;;;;;;;26.01;50.46;101350.28;4932669;28;114966;-66
2021/09/14 10:31:19;;;;;;;9.90;6.97;;;;;;;26.05;50.05;101346.28;4971978;22;124350;-64
2021/09/14 10:33:46;;;;;;;9.18;7.20;;;;;;;26.10;50.22;101354.78;4978846;28;124281;-62
2021/09/14 10:36:14;;;;;;;9.63;6.97;;;;;;;26.13;50.08;101343.59;4961210;28;114435;-62
2021/09/14 10:38:49;;;;;;;9.13;6.30;;;;;;;26.16;49.76;101346.03;4969698;28;113824;-61
2021/09/14 10:41:17;;;;;;;9.43;7.22;;;;;;;26.21;49.77;101345.53;4967639;28;123831;-62
2021/09/14 10:43:58;;;;;;;12.35;6.90;;;;;;;26.28;49.46;101340.31;4972956;28;124635;-64
2021/09/14 10:46:25;;;;;;;9.55;7.10;;;;;;;26.35;48.99;101333.22;4968612;28;114516;-61
2021/09/14 10:48:52;;;;;;;8.15;6.15;;;;;;;26.42;49.17;101326.13;4966397;28;114330;-61
2021/09/14 10:51:20;;;;;;;8.23;6.43;;;;;;;26.51;49.67;101336.03;4965122;28;124755;-61
2021/09/14 10:53:58;;;;;;;10.45;6.22;;;;;;;26.58;48.77;101337.09;4969976;28;124578;-62
2021/09/14 10:56:28;;;;;;;11.07;5.82;;;;;;;26.67;48.58;101338.00;4954519;28;113410;-62
2021/09/14 10:58:56;;;;;;;8.73;5.57;;;;;;;26.74;48.48;101330.06;4987537;28;114107;-64
2021/09/14 11:01:25;;;;;;;10.38;6.68;;;;;;;26.81;48.10;101328.41;4968315;28;123107;-63
2021/09/14 11:04:01;;;;;;;9.98;6.40;;;;;;;26.88;47.74;101329.44;4969798;28;124060;-64
2021/09/14 11:06:29;;;;;;;9.02;6.03;;;;;;;26.95;47.55;101322.31;4971564;28;114475;-64
2021/09/14 11:09:01;;;;;;;10.25;5.28;;;;;;;27.01;47.13;101326.22;4969250;28;114138;-65
2021/09/14 11:11:28;;;;;;;8.43;5.50;;;;;;;27.08;47.08;101321.00;4963957;28;124054;-65
2021/09/14 11:13:58;;;;;;;8.45;5.47;;;;;;;27.08;46.71;101321.84;4979986;28;123944;-63
2021/09/14 11:16:26;;;;;;;6.97;5.65;;;;;;;27.11;47.05;101309.81;4961471;28;115323;-63
2021/09/14 11:18:58;;;;;;;11.32;5.97;;;;;;;27.12;46.72;101303.31;4954911;28;114052;-63
2021/09/14 11:21:25;;;;;;;8.13;5.38;;;;;;;27.19;47.40;101297.06;4962177;28;124476;-63
2021/09/14 11:23:52;;;;;;;10.57;5.97;;;;;;;27.29;46.95;101294.22;4963760;28;124019;-63
2021/09/14 11:26:19;;;;;;;7.05;5.82;;;;;;;27.31;46.15;101292.19;4987102;28;114433;-63
2021/09/14 11:28:58;;;;;;;9.90;5.70;;;;;;;27.32;46.07;101293.03;4970352;28;114051;-63
2021/09/14 11:31:27;;;;;;;7.95;5.90;;;;;;;27.32;46.10;101291.16;4960723;28;124317;-63
2021/09/14 11:33:54;;;;;;;9.02;6.38;;;;;;;27.34;46.99;101283.69;4961149;28;123956;-64
2021/09/14 11:36:24;;;;;;;8.88;5.55;;;;;;;27.41;46.63;101288.44;4950573;28;112944;-63
2021/09/14 11:39:05;;;;;;;6.22;4.90;;;;;;;27.42;46.25;101284.72;4969000;28;114375;-63
2021/09/14 11:41:36;;;;;;;8.63;5.68;;;;;;;27.41;45.93;101285.72;4968918;28;124165;-63
2021/09/14 11:44:06;;;;;;;6.95;5.60;;;;;;;27.37;46.07;101283.34;4969499;28;124140;-62
2021/09/14 11:46:46;;;;;;;8.52;5.78;;;;;;;27.38;46.31;101279.59;4965616;28;114038;-62
2021/09/14 11:49:13;;;;;;;8.20;5.50;;;;;;;27.41;45.93;101278.44;4964217;28;112790;-62
2021/09/14 11:51:41;;;;;;;9.23;5.90;;;;;;;27.47;46.18;101271.47;4962080;28;123888;-62
2021/09/14 11:54:11;;;;;;;8.45;5.30;;;;;;;27.52;45.89;101274.50;4976481;28;124245;-62
2021/09/14 11:56:39;;;;;;;7.88;5.07;;;;;;;27.56;45.90;101270.44;4964481;28;114048;-62
2021/09/14 11:59:16;;;;;;;8.85;5.13;;;;;;;27.61;45.58;101273.47;4966966;28;114034;-62
2021/09/14 12:01:44;;;;;;;7.78;5.15;;;;;;;27.62;45.50;101275.19;4958386;28;123890;-62
2021/09/14 12:04:18;;;;;;;7.25;4.88;;;;;;;27.63;45.62;101270.59;4959103;28;124647;-62
2021/09/14 12:06:55;;;;;;;7.00;5.00;;;;;;;27.64;45.29;101267.72;4957925;28;114173;-62
2021/09/14 12:09:23;;;;;;;7.97;5.00;;;;;;;27.67;45.34;101271.94;4971557;28;115111;-64
2021/09/14 12:12:04;;;;;;;8.43;5.40;;;;;;;27.70;45.67;101269.75;4966015;28;124692;-64
2021/09/14 12:14:31;;;;;;;8.75;4.93;;;;;;;27.79;46.03;101269.75;4969335;28;123966;-65